METAR Formatted Surface Weather Observation
Issued by NWS

Home | Current Version | Previous Version | Text Only | Print | Product List | Glossary On
Versions: 1 2 3 4 5
000
SAUS45 KPUB 282258
MTRSPD
METAR KSPD 282256Z AUTO 10008KT 28/01 A3025 RMK AO1 SLP191 T02780011



USA.gov is the U.S. government's official web portal to all federal, state and local government web resources and services.